Time;durP1;ratioP1;P1;durP2;ratioP2;P2;SDS_P1;SDS_P2;PMS_P1;PMS_P2;Temp;Humidity;BMP_temperature;BMP_pressure;BME280_temperature;BME280_humidity;BME280_pressure;Samples;Min_cycle;Max_cycle;Signal;HPM_P1;HPM_P2
2023/07/19 00:02:16;;;;;;;4.82;2.53;;;;;;;18.36;48.10;99927.94;30727453;28;96688;-66
2023/07/19 00:17:17;;;;;;;5.50;2.30;;;;;;;17.76;49.11;99918.66;30729646;28;97991;-66
2023/07/19 00:32:17;;;;;;;3.53;2.20;;;;;;;17.42;49.84;99908.22;30745291;28;97424;-66
2023/07/19 00:47:18;;;;;;;4.38;2.40;;;;;;;17.16;50.78;99903.91;30744493;28;104925;-66
2023/07/19 01:02:20;;;;;;;7.63;2.37;;;;;;;16.94;51.40;99881.97;30742687;28;97659;-66
2023/07/19 01:17:20;;;;;;;5.20;2.07;;;;;;;16.71;51.79;99877.97;30741545;28;96716;-66
2023/07/19 01:32:20;;;;;;;3.92;2.00;;;;;;;16.50;52.51;99884.53;30739180;28;97284;-66
2023/07/19 01:47:21;;;;;;;6.38;2.60;;;;;;;16.36;52.78;99866.81;30738780;28;96790;-66
2023/07/19 02:02:21;;;;;;;4.50;1.98;;;;;;;16.16;53.20;99873.16;30737212;28;97217;-66
2023/07/19 02:17:22;;;;;;;4.50;2.53;;;;;;;15.56;54.32;99879.53;30737271;28;103702;-66
2023/07/19 02:32:22;;;;;;;5.07;2.50;;;;;;;15.39;55.67;99857.72;30736932;28;96816;-66
2023/07/19 02:47:22;;;;;;;11.55;3.10;;;;;;;15.37;56.46;99851.72;30734904;28;97438;-66
2023/07/19 03:02:23;;;;;;;5.47;3.00;;;;;;;15.28;57.16;99850.31;30734077;28;106779;-66
2023/07/19 03:17:23;;;;;;;7.43;3.25;;;;;;;15.22;57.22;99843.88;30733179;28;96882;-66
2023/07/19 03:32:24;;;;;;;7.80;2.88;;;;;;;15.32;57.69;99850.69;30730301;28;96821;-66
2023/07/19 03:47:25;;;;;;;10.38;4.00;;;;;;;15.63;58.23;99838.44;30747598;28;96775;-66
2023/07/19 04:02:25;;;;;;;10.35;3.15;;;;;;;15.97;57.71;99839.97;30867037;28;96771;-66
2023/07/19 04:17:27;;;;;;;14.37;3.27;;;;;;;16.46;58.05;99847.53;30868406;28;97595;-67
2023/07/19 04:32:27;;;;;;;11.83;3.10;;;;;;;16.91;57.63;99850.94;30862183;28;96910;-68
2023/07/19 04:47:28;;;;;;;5.10;2.58;;;;;;;17.45;55.62;99844.22;30819034;28;98391;-71
2023/07/19 05:02:29;;;;;;;8.63;3.00;;;;;;;17.99;54.13;99855.19;30738872;28;96594;-69
2023/07/19 05:17:29;;;;;;;5.68;2.83;;;;;;;18.42;52.92;99840.72;30738669;28;98665;-69
2023/07/19 05:32:30;;;;;;;7.40;2.47;;;;;;;19.08;51.29;99838.00;30736068;28;97440;-69
2023/07/19 05:47:30;;;;;;;7.20;3.83;;;;;;;19.91;49.33;99816.25;30735545;28;114401;-73
2023/07/19 06:02:31;;;;;;;8.55;3.15;;;;;;;20.29;47.02;99812.09;30733824;28;96961;-68
2023/07/19 06:17:31;;;;;;;;;;;;;;;20.96;45.77;99807.78;30733645;28;97561;-69
2023/07/19 06:32:31;;;;;;;6.47;2.42;;;;;;;21.68;45.25;99788.94;30731483;28;97388;-70
2023/07/19 06:47:32;;;;;;;5.80;1.80;;;;;;;22.35;43.30;99785.03;30727465;28;102214;-71
2023/07/19 07:02:32;;;;;;;7.27;1.73;;;;;;;23.44;41.29;99775.69;30728524;28;97489;-70
2023/07/19 07:17:32;;;;;;;6.55;1.77;;;;;;;24.54;39.41;99771.00;30726665;28;112848;-68
2023/07/19 07:32:34;;;;;;;4.57;1.88;;;;;;;25.59;38.07;99765.84;30736300;28;97237;-69
2023/07/19 07:47:35;;;;;;;7.43;2.10;;;;;;;26.53;35.66;99758.63;30746082;28;96915;-69
2023/07/19 08:02:35;;;;;;;4.00;1.73;;;;;;;27.34;33.90;99747.94;30742860;28;97563;-69
2023/07/19 08:17:36;;;;;;;6.60;1.80;;;;;;;28.31;31.95;99746.84;30743497;28;97360;-69
2023/07/19 08:32:36;;;;;;;2.78;1.42;;;;;;;28.88;30.81;99738.44;30742954;28;97387;-70
2023/07/19 08:47:40;;;;;;;4.80;1.90;;;;;;;29.57;29.14;99714.81;30741383;28;98432;-69
2023/07/19 09:02:40;;;;;;;5.50;1.60;;;;;;;30.42;28.23;99693.00;30738465;28;97398;-68
2023/07/19 09:17:45;;;;;;;3.90;1.70;;;;;;;30.38;27.57;99687.31;30738757;28;111286;-68
2023/07/19 09:32:58;;;;;;;4.40;1.70;;;;;;;30.68;27.64;99671.16;30737615;28;97194;-70
2023/07/19 09:47:59;;;;;;;6.30;2.20;;;;;;;30.43;27.21;99650.66;30736180;28;96604;-71
2023/07/19 10:02:59;;;;;;;3.30;1.70;;;;;;;31.05;27.02;99641.50;30734623;28;96881;-69
2023/07/19 10:18:00;;;;;;;6.80;1.95;;;;;;;31.43;25.94;99628.28;30734981;28;96660;-74
2023/07/19 10:33:01;;;;;;;5.20;1.93;;;;;;;31.56;26.06;99619.03;30733207;28;97315;-74
2023/07/19 10:48:01;;;;;;;4.30;2.35;;;;;;;33.01;24.81;99612.88;30778955;28;111118;-72
2023/07/19 11:03:02;;;;;;;5.97;2.38;;;;;;;34.40;22.60;99598.06;30849197;28;97199;-75
2023/07/19 11:18:02;;;;;;;4.35;1.92;;;;;;;35.06;21.39;99576.78;30851638;28;97486;-66
2023/07/19 11:33:09;;;;;;;4.18;2.33;;;;;;;35.97;20.21;99561.50;30816320;28;96971;-64
2023/07/19 11:48:09;;;;;;;4.40;2.23;;;;;;;36.29;19.72;99544.84;30837223;28;97338;-65
2023/07/19 12:03:10;;;;;;;5.15;1.60;;;;;;;36.17;19.52;99540.22;30826207;28;98199;-66
2023/07/19 12:18:10;;;;;;;4.65;1.65;;;;;;;35.45;19.89;99529.28;30856883;28;110007;-66
2023/07/19 12:33:10;;;;;;;6.18;1.70;;;;;;;34.54;20.83;99515.59;30863008;28;112238;-65
2023/07/19 12:48:11;;;;;;;3.40;1.67;;;;;;;34.98;20.01;99503.84;30862673;28;114779;-67
2023/07/19 13:03:11;;;;;;;3.85;1.75;;;;;;;34.39;20.14;99497.75;30853711;28;97290;-68
2023/07/19 13:18:11;;;;;;;4.57;1.85;;;;;;;34.48;20.23;99474.69;30842927;28;108171;-66
2023/07/19 13:33:12;;;;;;;5.47;1.90;;;;;;;34.65;18.79;99468.91;30857479;28;97387;-66
2023/07/19 13:48:12;;;;;;;4.00;1.70;;;;;;;34.17;18.58;99457.53;30856588;28;119278;-66
2023/07/19 14:03:14;;;;;;;5.05;1.20;;;;;;;32.69;18.01;99449.72;30853888;28;97506;-66
2023/07/19 14:18:15;;;;;;;4.30;1.27;;;;;;;32.05;18.52;99459.88;30846555;28;97908;-66
2023/07/19 14:33:16;;;;;;;2.15;1.15;;;;;;;31.36;18.87;99436.16;30842795;28;97469;-66
2023/07/19 14:48:17;;;;;;;2.67;1.17;;;;;;;31.04;19.13;99421.81;30837494;28;97409;-70
2023/07/19 15:03:18;;;;;;;5.38;1.52;;;;;;;31.23;19.31;99413.19;30807560;28;116490;-69
2023/07/19 15:18:18;;;;;;;3.15;1.30;;;;;;;30.38;20.05;99403.53;30786500;28;97485;-66
2023/07/19 15:33:18;;;;;;;3.20;1.40;;;;;;;30.32;20.42;99389.16;30837809;28;98163;-67
2023/07/19 15:48:19;;;;;;;3.50;1.20;;;;;;;30.91;19.82;99382.34;30834192;28;97035;-66
2023/07/19 16:03:19;;;;;;;2.40;1.10;;;;;;;30.61;19.83;99376.72;30833400;28;98208;-66
2023/07/19 16:18:20;;;;;;;2.90;1.13;;;;;;;30.05;20.41;99373.78;30842635;28;97325;-67
2023/07/19 16:33:20;;;;;;;4.63;3.20;;;;;;;29.70;21.18;99363.50;30838354;28;97236;-66
2023/07/19 16:48:21;;;;;;;3.08;1.50;;;;;;;29.51;22.12;99362.94;30813584;28;99386;-66
2023/07/19 17:03:21;;;;;;;3.60;1.33;;;;;;;28.79;22.39;99365.63;30837012;28;97777;-66
2023/07/19 17:18:25;;;;;;;4.57;1.55;;;;;;;28.33;23.63;99372.97;30839320;28;96966;-66
2023/07/19 17:33:25;;;;;;;3.27;1.40;;;;;;;28.02;24.40;99372.84;30845607;28;97324;-66
2023/07/19 17:48:25;;;;;;;2.58;1.48;;;;;;;27.75;25.35;99369.00;30843617;28;97318;-65
2023/07/19 18:03:26;;;;;;;4.95;1.80;;;;;;;27.27;26.35;99386.56;30841857;28;115814;-66
2023/07/19 18:18:26;;;;;;;5.38;1.50;;;;;;;26.77;26.93;99387.13;30841400;28;109354;-66
2023/07/19 18:33:26;;;;;;;5.10;1.60;;;;;;;26.16;28.54;99407.94;30839335;28;97167;-67
2023/07/19 18:48:27;;;;;;;5.80;1.52;;;;;;;26.09;31.33;99430.13;30838239;28;98366;-66
2023/07/19 19:03:27;;;;;;;6.18;2.10;;;;;;;25.82;32.51;99425.22;30808904;28;97327;-66
2023/07/19 19:18:28;;;;;;;4.82;1.77;;;;;;;25.39;33.84;99446.97;30753247;28;97293;-67
2023/07/19 19:33:28;;;;;;;4.38;2.58;;;;;;;25.12;34.84;99454.53;30968883;28;97335;-67
2023/07/19 19:48:29;;;;;;;5.65;2.38;;;;;;;25.03;35.03;99456.22;30970730;28;97669;-66
2023/07/19 20:03:29;;;;;;;4.93;1.98;;;;;;;24.85;35.62;99479.53;30970129;28;97335;-66
2023/07/19 20:18:29;;;;;;;4.28;1.88;;;;;;;24.67;35.21;99457.31;30944989;28;97563;-66
2023/07/19 20:33:30;;;;;;;5.30;2.05;;;;;;;24.15;35.91;99462.16;30842212;28;97350;-66
2023/07/19 20:48:31;;;;;;;3.08;1.80;;;;;;;23.60;37.27;99444.88;30850560;28;97124;-66
2023/07/19 21:03:32;;;;;;;5.38;1.95;;;;;;;23.08;38.34;99460.38;30850135;28;97024;-65
2023/07/19 21:18:32;;;;;;;6.03;1.90;;;;;;;22.76;39.43;99464.16;30848187;28;97400;-66
2023/07/19 21:33:33;;;;;;;;;;;;;;;22.96;39.57;99457.91;30846015;28;96757;-66
2023/07/19 21:48:33;;;;;;;4.77;2.27;;;;;;;23.08;39.14;99449.53;30847366;28;97273;-66
2023/07/19 22:03:33;;;;;;;5.30;2.25;;;;;;;23.30;38.74;99460.13;30844561;28;115999;-66
2023/07/19 22:18:33;;;;;;;;;;;;;;;23.18;39.31;99460.41;30843210;28;114862;-66
2023/07/19 22:33:34;;;;;;;6.17;1.90;;;;;;;23.17;38.97;99485.97;30843689;28;96721;-66
2023/07/19 22:48:34;;;;;;;;;;;;;;;22.93;39.22;99529.88;30842213;28;96712;-66
2023/07/19 23:03:35;;;;;;;2.97;1.40;;;;;;;21.94;42.68;99571.22;30842298;28;97396;-66
2023/07/19 23:18:35;;;;;;;4.40;1.43;;;;;;;20.60;48.71;99578.00;30840115;28;97180;-67
2023/07/19 23:33:35;;;;;;;2.00;1.20;;;;;;;19.45;53.95;99538.75;30837995;28;96824;-67
2023/07/19 23:48:37;;;;;;;2.53;1.50;;;;;;;18.93;56.78;99539.72;30836931;28;97371;-67
